Time;durP1;ratioP1;P1;durP2;ratioP2;P2;SDS_P1;SDS_P2;PMS_P1;PMS_P2;Temp;Humidity;BMP_temperature;BMP_pressure;BME280_temperature;BME280_humidity;BME280_pressure;Samples;Min_cycle;Max_cycle;Signal;HPM_P1;HPM_P2
2022/10/28 00:01:26;;;;;;;19.38;5.80;;;;;;;29.22;100.00;97873.34;6243758;22;20003;-96
2022/10/28 00:03:57;;;;;;;19.30;6.85;;;;;;;28.99;100.00;97856.00;6244741;22;20004;-96
2022/10/28 00:06:35;;;;;;;15.70;6.20;;;;;;;28.90;100.00;97857.78;6244898;22;20425;-96
2022/10/28 00:09:01;;;;;;;17.48;6.45;;;;;;;28.78;100.00;97857.13;6245881;22;20035;-96
2022/10/28 00:11:29;;;;;;;15.85;6.03;;;;;;;29.52;100.00;97857.84;6246319;22;20011;-96
2022/10/28 00:13:57;;;;;;;22.60;6.80;;;;;;;28.93;100.00;97865.50;6245700;22;20015;-95
2022/10/28 00:16:25;;;;;;;22.00;6.20;;;;;;;29.55;100.00;97856.66;6244939;22;20460;-96
2022/10/28 00:18:52;;;;;;;20.92;6.32;;;;;;;29.71;100.00;97856.78;6245274;22;20000;-95
2022/10/28 00:21:27;;;;;;;16.73;6.68;;;;;;;29.09;100.00;97851.44;6246348;22;20432;-96
2022/10/28 00:23:52;;;;;;;18.75;6.68;;;;;;;30.39;100.00;97848.94;6244619;22;20015;-96
2022/10/28 00:26:20;;;;;;;18.10;7.60;;;;;;;29.68;100.00;97857.09;6245497;22;20031;-96
2022/10/28 00:28:53;;;;;;;19.23;7.28;;;;;;;30.57;100.00;97836.25;6271699;22;20008;-94
2022/10/28 00:31:21;;;;;;;18.10;7.47;;;;;;;28.05;100.00;97845.38;6246903;22;20038;-95
2022/10/28 00:33:47;;;;;;;17.35;6.93;;;;;;;28.08;100.00;97849.59;6275964;22;20008;-96
2022/10/28 00:36:15;;;;;;;17.58;6.95;;;;;;;29.13;100.00;97847.44;6249382;22;20042;-96
2022/10/28 00:38:42;;;;;;;19.33;7.30;;;;;;;28.88;100.00;97839.16;6249171;22;20054;-96
2022/10/28 00:41:09;;;;;;;21.92;7.18;;;;;;;28.82;100.00;97834.38;6248254;22;20007;-96
2022/10/28 00:43:50;;;;;;;16.02;6.53;;;;;;;28.76;100.00;97843.03;6248944;22;20012;-96
2022/10/28 00:46:32;;;;;;;19.90;7.35;;;;;;;29.39;100.00;97843.97;6248263;22;20003;-96
2022/10/28 00:49:05;;;;;;;17.95;7.00;;;;;;;28.97;100.00;97841.91;6248142;22;20012;-96
2022/10/28 00:51:34;;;;;;;17.00;6.50;;;;;;;29.37;100.00;97844.13;6248038;22;20030;-96
2022/10/28 00:54:00;;;;;;;22.50;7.70;;;;;;;29.64;100.00;97845.00;6249158;22;20007;-96
2022/10/28 00:56:30;;;;;;;19.75;6.90;;;;;;;27.79;100.00;97842.47;6247656;22;20627;-96
2022/10/28 00:58:58;;;;;;;17.17;6.72;;;;;;;27.04;100.00;97842.25;6248816;22;20083;-96
2022/10/28 01:01:24;;;;;;;20.13;6.68;;;;;;;28.99;100.00;97826.47;6247632;22;20010;-96
2022/10/28 01:03:50;;;;;;;15.38;6.30;;;;;;;29.02;100.00;97844.97;6248801;22;20333;-96
2022/10/28 01:06:19;;;;;;;17.55;6.07;;;;;;;26.17;100.00;97839.25;6248723;22;20079;-94
2022/10/28 01:08:44;;;;;;;17.63;6.90;;;;;;;26.98;100.00;97837.47;6247588;22;20357;-95
2022/10/28 01:11:21;;;;;;;17.83;6.55;;;;;;;30.19;100.00;97833.06;6248447;22;20012;-96
2022/10/28 01:14:08;;;;;;;15.57;5.90;;;;;;;28.49;100.00;97846.56;6246597;22;20003;-96
2022/10/28 01:16:55;;;;;;;17.02;6.22;;;;;;;28.57;100.00;97841.28;6244757;22;20011;-96
2022/10/28 01:19:58;;;;;;;18.27;5.53;;;;;;;28.40;100.00;97841.09;6245045;22;20004;-96
2022/10/28 01:22:26;;;;;;;19.87;6.37;;;;;;;26.33;100.00;97817.38;6244701;22;20080;-96
2022/10/28 01:25:23;;;;;;;18.92;5.63;;;;;;;27.03;100.00;97821.84;6245001;22;20035;-96
2022/10/28 01:28:12;;;;;;;14.38;5.60;;;;;;;26.50;100.00;97818.53;6221463;22;20157;-96
2022/10/28 01:30:58;;;;;;;18.90;5.63;;;;;;;29.06;100.00;97823.03;6245620;22;20011;-96
2022/10/28 01:33:30;;;;;;;15.45;5.28;;;;;;;28.34;100.00;97814.91;6243326;22;20015;-96
2022/10/28 01:36:10;;;;;;;17.25;5.68;;;;;;;28.63;100.00;97807.69;6271022;22;20433;-96
2022/10/28 01:39:11;;;;;;;13.88;5.68;;;;;;;27.84;100.00;97802.69;6247275;22;20099;-96
2022/10/28 01:41:59;;;;;;;18.58;5.93;;;;;;;29.07;100.00;97803.22;6153591;23;20458;-96
2022/10/28 01:44:44;;;;;;;15.50;5.07;;;;;;;30.21;100.00;97793.41;6154383;23;20009;-96
2022/10/28 01:47:24;;;;;;;15.48;5.53;;;;;;;28.91;100.00;97809.31;6178933;23;20024;-96
2022/10/28 01:50:01;;;;;;;14.68;5.18;;;;;;;28.66;100.00;97807.38;6177233;23;20627;-95
2022/10/28 01:52:30;;;;;;;18.58;5.18;;;;;;;28.89;100.00;97795.19;6178143;23;20009;-95
2022/10/28 01:55:22;;;;;;;16.58;5.88;;;;;;;28.71;100.00;97797.03;6152691;23;20522;-96
2022/10/28 01:57:51;;;;;;;18.27;5.05;;;;;;;28.33;100.00;97785.56;6178781;23;20032;-96
2022/10/28 02:00:31;;;;;;;15.82;4.97;;;;;;;28.85;100.00;97763.47;6178658;23;20036;-96
2022/10/28 02:02:56;;;;;;;15.25;4.97;;;;;;;28.23;100.00;97782.94;6203110;23;20017;-94
2022/10/28 02:05:52;;;;;;;13.13;5.10;;;;;;;29.16;100.00;97782.69;6205220;23;20015;-94
2022/10/28 02:08:21;;;;;;;15.85;5.10;;;;;;;27.21;100.00;97787.16;6181705;23;20036;-95
2022/10/28 02:10:59;;;;;;;13.32;5.07;;;;;;;28.24;100.00;97784.59;6185460;23;20071;-96
2022/10/28 02:13:39;;;;;;;17.85;6.22;;;;;;;28.46;100.00;97780.66;6185129;23;20007;-96
2022/10/28 02:16:08;;;;;;;13.02;4.70;;;;;;;28.01;100.00;97781.50;6183864;23;20008;-95
2022/10/28 02:19:03;;;;;;;14.82;5.38;;;;;;;28.77;100.00;97781.19;6187367;23;20445;-96
2022/10/28 02:22:06;;;;;;;16.45;4.90;;;;;;;28.48;100.00;97770.63;6212181;23;20311;-95
2022/10/28 02:24:45;;;;;;;18.95;5.40;;;;;;;28.59;100.00;97761.53;6210917;23;20367;-96
2022/10/28 02:27:37;;;;;;;16.23;4.80;;;;;;;28.25;100.00;97746.94;6211476;23;20040;-96
2022/10/28 02:30:15;;;;;;;16.58;5.47;;;;;;;27.45;100.00;97751.06;6212645;23;20012;-95
2022/10/28 02:32:46;;;;;;;17.63;6.05;;;;;;;27.85;100.00;97748.13;6213202;23;20010;-94
2022/10/28 02:35:21;;;;;;;19.92;6.18;;;;;;;28.65;100.00;97749.38;6187382;23;20039;-96
2022/10/28 02:37:48;;;;;;;13.15;5.75;;;;;;;27.92;100.00;97751.06;6212223;23;20702;-95
2022/10/28 02:40:25;;;;;;;12.32;5.25;;;;;;;26.99;100.00;97745.53;6187718;23;20008;-96
2022/10/28 02:43:03;;;;;;;18.73;6.15;;;;;;;27.06;100.00;97744.78;6212199;23;20016;-95
2022/10/28 02:45:34;;;;;;;15.05;6.85;;;;;;;28.77;100.00;97740.09;6213205;23;20000;-94
2022/10/28 02:48:12;;;;;;;15.05;5.40;;;;;;;27.96;100.00;97738.19;6188118;23;20004;-96
2022/10/28 02:50:44;;;;;;;17.70;6.15;;;;;;;29.31;100.00;97715.84;6187640;23;20457;-95
2022/10/28 02:53:20;;;;;;;12.25;5.45;;;;;;;28.57;100.00;97731.31;6188981;23;20004;-96
2022/10/28 02:55:51;;;;;;;14.70;5.40;;;;;;;28.72;100.00;97732.50;6187734;23;20095;-95
2022/10/28 02:58:17;;;;;;;16.33;5.40;;;;;;;29.32;100.00;97727.44;6216787;23;20008;-94
2022/10/28 03:00:44;;;;;;;14.20;4.85;;;;;;;30.15;100.00;97724.16;6215405;23;20021;-95
2022/10/28 03:03:10;;;;;;;14.68;5.10;;;;;;;29.60;100.00;97722.72;6190149;23;20015;-95
2022/10/28 03:05:44;;;;;;;13.15;4.47;;;;;;;29.04;100.00;97714.13;6190442;23;20016;-95
2022/10/28 03:11:25;;;;;;;11.65;3.72;;;;;;;30.02;100.00;97692.34;6189452;23;20032;-94
2022/10/28 03:13:51;;;;;;;10.00;3.47;;;;;;;29.74;100.00;97700.63;6189216;23;20372;-96
2022/10/28 03:16:16;;;;;;;15.20;3.60;;;;;;;29.88;100.00;97691.13;6189795;23;20443;-96
2022/10/28 03:18:42;;;;;;;16.67;3.30;;;;;;;29.21;100.00;97674.81;6188972;23;20016;-95
2022/10/28 03:21:07;;;;;;;12.68;3.83;;;;;;;27.97;100.00;97672.88;6214875;23;20013;-95
2022/10/28 03:23:33;;;;;;;10.50;3.70;;;;;;;28.51;100.00;97648.78;6189263;23;20008;-95
2022/10/28 03:25:58;;;;;;;13.25;3.78;;;;;;;28.71;100.00;97666.44;6188281;23;20066;-95
2022/10/28 03:28:24;;;;;;;14.80;3.80;;;;;;;28.08;100.00;97662.78;6189682;23;20005;-95
2022/10/28 03:30:49;;;;;;;11.07;3.33;;;;;;;27.24;100.00;97653.06;6215929;23;20343;-94
2022/10/28 03:33:15;;;;;;;12.88;3.45;;;;;;;27.58;100.00;97647.16;6192393;23;20035;-95
2022/10/28 03:35:40;;;;;;;13.80;4.07;;;;;;;26.78;100.00;97633.31;6214315;23;20021;-93
2022/10/28 03:38:05;;;;;;;13.07;3.10;;;;;;;27.32;100.00;97609.47;6213568;23;20020;-94
2022/10/28 03:40:31;;;;;;;13.43;3.75;;;;;;;27.82;100.00;97622.50;6187768;23;20698;-94
2022/10/28 03:42:56;;;;;;;11.80;3.65;;;;;;;27.70;100.00;97627.22;6187346;23;20036;-95
2022/10/28 03:45:25;;;;;;;11.80;3.67;;;;;;;27.84;100.00;97641.09;6211773;23;20086;-95
2022/10/28 03:47:50;;;;;;;12.43;4.00;;;;;;;27.40;100.00;97639.06;6187111;23;20035;-96
2022/10/28 03:50:16;;;;;;;13.70;3.97;;;;;;;28.77;100.00;97638.13;6213726;23;20008;-96
2022/10/28 03:52:50;;;;;;;12.55;3.83;;;;;;;28.74;100.00;97622.31;6214427;23;20051;-94
2022/10/28 03:55:16;;;;;;;11.80;4.22;;;;;;;28.34;100.00;97615.66;6190290;23;20017;-96
2022/10/28 03:57:42;;;;;;;16.10;4.18;;;;;;;28.08;100.00;97608.38;6188151;23;20015;-95
2022/10/28 04:00:08;;;;;;;14.40;4.40;;;;;;;28.79;100.00;97617.34;6187807;23;20077;-96
2022/10/28 04:02:33;;;;;;;15.45;4.10;;;;;;;28.31;100.00;97615.94;6187512;23;20016;-96
2022/10/28 04:04:59;;;;;;;11.85;4.35;;;;;;;27.74;100.00;97603.66;6187694;23;20039;-95
2022/10/28 04:07:26;;;;;;;16.27;4.38;;;;;;;28.75;100.00;97598.03;6213788;23;20486;-94
2022/10/28 04:09:51;;;;;;;16.48;4.05;;;;;;;28.24;100.00;97599.59;6186552;23;20035;-94
2022/10/28 04:12:17;;;;;;;15.77;4.20;;;;;;;28.74;100.00;97603.53;6188007;23;20439;-95
2022/10/28 04:14:43;;;;;;;14.13;4.13;;;;;;;28.45;100.00;97585.91;6213301;23;20055;-94
2022/10/28 04:17:08;;;;;;;11.93;3.15;;;;;;;28.28;100.00;97590.25;6187157;23;20233;-95
2022/10/28 04:19:34;;;;;;;13.38;3.75;;;;;;;27.69;100.00;97589.84;6186450;23;19996;-95
2022/10/28 04:21:59;;;;;;;17.58;4.13;;;;;;;29.04;100.00;97582.59;6210719;23;20004;-96
2022/10/28 04:24:25;;;;;;;15.30;3.85;;;;;;;27.47;100.00;97586.59;6184833;23;20008;-95
2022/10/28 04:26:50;;;;;;;13.35;4.18;;;;;;;24.86;100.00;97581.81;6186652;23;20042;-96
2022/10/28 04:29:16;;;;;;;15.85;4.25;;;;;;;26.38;100.00;97574.53;6187202;23;20013;-95
2022/10/28 04:31:41;;;;;;;13.85;4.18;;;;;;;29.07;100.00;97568.84;6187631;23;20094;-94
2022/10/28 04:34:15;;;;;;;13.48;4.95;;;;;;;26.33;100.00;97575.94;6187612;23;20012;-95
2022/10/28 04:36:40;;;;;;;13.80;4.80;;;;;;;27.94;100.00;97567.66;6186654;23;20008;-94
2022/10/28 04:39:05;;;;;;;21.83;4.72;;;;;;;28.31;100.00;97570.34;6187694;23;20438;-95
2022/10/28 04:41:31;;;;;;;13.90;4.43;;;;;;;27.55;100.00;97567.94;6186335;23;20009;-94
2022/10/28 04:43:56;;;;;;;17.02;4.82;;;;;;;27.54;100.00;97557.38;6211304;23;20036;-94
2022/10/28 04:46:22;;;;;;;14.48;4.68;;;;;;;25.60;100.00;97560.31;6210392;23;20016;-95
2022/10/28 04:48:47;;;;;;;15.85;4.45;;;;;;;26.78;100.00;97553.94;6213826;23;20007;-94
2022/10/28 04:51:13;;;;;;;12.43;4.50;;;;;;;25.53;100.00;97544.00;6211807;23;20016;-93
2022/10/28 04:53:39;;;;;;;16.83;4.90;;;;;;;26.26;100.00;97556.97;6186877;23;20001;-94
2022/10/28 04:56:04;;;;;;;21.13;5.10;;;;;;;26.98;100.00;97552.00;6187381;23;20004;-94
2022/10/28 04:58:33;;;;;;;16.10;5.05;;;;;;;27.38;100.00;97558.88;6212402;23;20016;-95
2022/10/28 05:00:58;;;;;;;18.42;5.30;;;;;;;27.37;100.00;97556.38;6182024;23;20467;-96
2022/10/28 05:03:24;;;;;;;15.90;5.65;;;;;;;27.04;100.00;97547.91;6157633;23;20024;-94
2022/10/28 05:05:49;;;;;;;17.48;5.72;;;;;;;27.70;100.00;97544.16;6184065;23;20001;-93
2022/10/28 05:08:15;;;;;;;15.40;5.65;;;;;;;27.35;100.00;97542.25;6156556;23;20005;-95
2022/10/28 05:10:40;;;;;;;18.67;5.32;;;;;;;26.54;100.00;97536.53;6156829;23;20009;-95
2022/10/28 05:13:05;;;;;;;20.90;5.40;;;;;;;26.21;100.00;97541.34;6156655;23;20367;-94
2022/10/28 05:15:31;;;;;;;17.23;5.32;;;;;;;26.53;100.00;97539.34;6182262;23;20004;-95
2022/10/28 05:17:57;;;;;;;13.38;5.10;;;;;;;25.95;100.00;97525.03;6182313;23;20900;-93
2022/10/28 05:20:23;;;;;;;18.08;5.63;;;;;;;26.85;100.00;97516.75;6156064;23;20455;-93
2022/10/28 05:22:52;;;;;;;20.33;5.45;;;;;;;27.07;100.00;97526.19;6183246;23;20001;-94
2022/10/28 05:25:19;;;;;;;17.35;5.32;;;;;;;27.18;100.00;97501.94;6180972;23;20454;-95
2022/10/28 05:27:45;;;;;;;19.52;6.50;;;;;;;26.15;100.00;97515.22;6178847;23;20028;-95
2022/10/28 05:30:11;;;;;;;18.05;5.40;;;;;;;26.64;100.00;97499.06;6152863;23;20020;-95
2022/10/28 05:32:37;;;;;;;15.93;5.63;;;;;;;26.65;100.00;97502.56;6177603;23;20009;-94
2022/10/28 05:35:03;;;;;;;17.42;5.13;;;;;;;27.50;100.00;97510.47;6176767;23;20061;-95
2022/10/28 05:37:28;;;;;;;13.05;4.82;;;;;;;27.79;100.00;97507.56;6175656;23;20084;-95
2022/10/28 05:39:54;;;;;;;15.18;5.35;;;;;;;27.60;100.00;97508.59;6177713;23;20012;-95
2022/10/28 05:42:19;;;;;;;16.92;4.97;;;;;;;27.48;100.00;97497.25;6176564;23;20012;-94
2022/10/28 05:44:45;;;;;;;13.13;4.88;;;;;;;27.05;100.00;97520.16;6178053;23;20383;-95
2022/10/28 05:47:10;;;;;;;13.68;5.20;;;;;;;26.35;100.00;97517.84;6179923;23;20015;-94
2022/10/28 05:49:35;;;;;;;17.73;5.55;;;;;;;26.88;100.00;97505.75;6151377;23;20104;-95
2022/10/28 05:52:01;;;;;;;11.82;4.90;;;;;;;26.53;100.00;97502.75;6152192;23;20424;-94
2022/10/28 05:54:26;;;;;;;15.43;5.15;;;;;;;26.89;100.00;97518.97;6175270;23;20486;-95
2022/10/28 05:56:52;;;;;;;15.98;5.25;;;;;;;27.41;100.00;97517.59;6152894;23;20008;-95
2022/10/28 05:59:17;;;;;;;17.40;4.65;;;;;;;26.67;100.00;97504.09;6178002;23;20084;-94
2022/10/28 06:01:43;;;;;;;12.23;4.38;;;;;;;26.44;100.00;97500.09;6167731;23;20097;-95
2022/10/28 06:04:09;;;;;;;11.75;3.85;;;;;;;27.01;100.00;97510.75;6211471;23;20027;-94
2022/10/28 06:06:35;;;;;;;14.90;4.60;;;;;;;26.01;100.00;97500.47;6185218;23;20013;-92
2022/10/28 06:09:00;;;;;;;16.60;4.15;;;;;;;26.22;100.00;97519.00;6185313;23;20125;-94
2022/10/28 06:11:26;;;;;;;11.27;3.35;;;;;;;26.36;100.00;97523.06;6186202;23;20592;-93
2022/10/28 06:13:51;;;;;;;12.55;2.78;;;;;;;25.98;100.00;97508.72;6184612;23;20445;-94
2022/10/28 06:16:16;;;;;;;8.52;2.55;;;;;;;26.06;100.00;97513.41;6184624;23;20028;-93
2022/10/28 06:18:42;;;;;;;10.10;2.92;;;;;;;26.91;100.00;97486.72;6208783;23;20447;-91
2022/10/28 06:21:07;;;;;;;9.57;2.35;;;;;;;25.90;100.00;97489.88;6183055;23;20012;-93
2022/10/28 06:23:33;;;;;;;12.20;2.50;;;;;;;25.55;100.00;97513.53;6208400;23;20099;-94
2022/10/28 06:26:00;;;;;;;9.65;2.40;;;;;;;26.40;100.00;97507.56;6208835;23;20079;-92
2022/10/28 06:28:26;;;;;;;8.75;2.50;;;;;;;26.89;100.00;97513.63;6208575;23;20019;-95
2022/10/28 06:30:51;;;;;;;11.57;2.50;;;;;;;26.11;100.00;97512.97;6207448;23;20004;-95
2022/10/28 06:33:17;;;;;;;12.23;2.92;;;;;;;27.01;100.00;97484.00;6207666;23;20008;-93
2022/10/28 06:35:42;;;;;;;9.35;2.75;;;;;;;26.17;100.00;97496.38;6210082;23;20324;-92
2022/10/28 06:38:08;;;;;;;12.25;2.72;;;;;;;26.08;100.00;97494.56;6183281;23;20015;-93
2022/10/28 06:40:34;;;;;;;12.73;2.67;;;;;;;26.26;100.00;97487.47;6182796;23;20001;-92
2022/10/28 06:43:02;;;;;;;10.10;2.60;;;;;;;26.24;100.00;97495.63;6183077;23;20505;-92
2022/10/28 06:45:33;;;;;;;10.05;2.58;;;;;;;26.86;100.00;97475.59;6208002;23;20015;-94
2022/10/28 06:48:01;;;;;;;11.23;2.95;;;;;;;26.27;100.00;97474.97;6207542;23;20016;-94
2022/10/28 06:50:28;;;;;;;9.52;2.70;;;;;;;26.32;100.00;97457.50;6207581;23;20008;-95
2022/10/28 06:52:55;;;;;;;12.55;3.00;;;;;;;25.15;100.00;97458.38;6208077;23;20004;-93
2022/10/28 06:55:21;;;;;;;9.15;2.47;;;;;;;25.27;100.00;97460.91;6181728;23;20417;-92
2022/10/28 06:57:46;;;;;;;9.80;2.50;;;;;;;25.66;100.00;97452.94;6208894;23;20092;-94
2022/10/28 07:00:15;;;;;;;10.10;2.58;;;;;;;25.56;100.00;97453.78;6208471;23;20012;-94
2022/10/28 07:02:40;;;;;;;10.70;2.38;;;;;;;24.65;100.00;97447.72;6176941;23;20949;-94
2022/10/28 07:05:06;;;;;;;11.35;2.90;;;;;;;25.16;100.00;97452.06;6179783;23;20040;-93
2022/10/28 07:07:32;;;;;;;9.43;2.53;;;;;;;25.21;100.00;97444.47;6178979;23;20001;-94
2022/10/28 07:09:57;;;;;;;7.72;2.42;;;;;;;25.34;100.00;97451.38;6179293;23;20079;-94
2022/10/28 07:12:23;;;;;;;13.77;3.22;;;;;;;24.96;100.00;97443.16;6154872;23;20032;-93
2022/10/28 07:14:48;;;;;;;11.13;2.80;;;;;;;25.73;100.00;97452.25;6178032;23;20087;-93
2022/10/28 07:17:14;;;;;;;9.95;2.72;;;;;;;23.65;100.00;97447.22;6154454;23;20316;-93
2022/10/28 07:19:39;;;;;;;9.80;2.60;;;;;;;24.03;100.00;97459.13;6181735;23;20016;-95
2022/10/28 07:22:05;;;;;;;12.65;3.38;;;;;;;24.02;100.00;97464.59;6153971;23;20001;-93
2022/10/28 07:24:30;;;;;;;8.27;2.60;;;;;;;23.85;100.00;97426.06;6178982;23;20106;-95
2022/10/28 07:26:55;;;;;;;9.90;2.78;;;;;;;26.43;100.00;97443.13;6179738;23;20017;-94
2022/10/28 07:29:21;;;;;;;11.73;3.33;;;;;;;26.95;100.00;97450.66;6179959;23;20012;-91
2022/10/28 07:31:46;;;;;;;11.35;2.70;;;;;;;26.24;100.00;97434.16;6178516;23;20448;-93
2022/10/28 07:34:12;;;;;;;7.50;2.67;;;;;;;25.43;100.00;97453.22;6155862;23;20012;-93
2022/10/28 07:36:37;;;;;;;10.93;3.47;;;;;;;25.67;100.00;97438.63;6177653;23;20373;-93
2022/10/28 07:39:03;;;;;;;11.80;2.67;;;;;;;27.05;100.00;97458.63;6145035;23;20012;-94
2022/10/28 07:41:28;;;;;;;13.85;3.15;;;;;;;26.99;100.00;97461.91;6162252;23;20080;-93
2022/10/28 07:43:54;;;;;;;9.88;2.72;;;;;;;26.59;100.00;97445.16;6179314;23;20064;-92
2022/10/28 07:46:19;;;;;;;11.20;2.50;;;;;;;27.36;100.00;97445.78;6156362;23;20005;-95
2022/10/28 07:48:45;;;;;;;9.55;2.63;;;;;;;27.05;100.00;97467.47;6155725;23;20493;-93
2022/10/28 07:51:13;;;;;;;9.98;2.83;;;;;;;26.52;100.00;97466.28;6181066;23;20001;-93
2022/10/28 07:53:39;;;;;;;17.05;3.08;;;;;;;27.12;100.00;97475.75;6182810;23;20095;-94
2022/10/28 07:56:09;;;;;;;11.73;3.08;;;;;;;26.39;100.00;97468.47;6155812;23;20001;-94
2022/10/28 07:58:35;;;;;;;11.40;2.47;;;;;;;27.15;100.00;97496.84;6180941;23;20004;-96
2022/10/28 08:01:07;;;;;;;13.15;2.88;;;;;;;27.01;100.00;97498.19;6158641;23;20084;-93
2022/10/28 08:03:33;;;;;;;11.63;2.70;;;;;;;26.21;100.00;97513.81;6182597;23;20008;-93
2022/10/28 08:06:08;;;;;;;10.65;2.58;;;;;;;26.85;100.00;97511.41;6207760;23;20017;-93
2022/10/28 08:08:34;;;;;;;8.98;2.70;;;;;;;27.39;100.00;97528.47;6208613;23;20032;-92
2022/10/28 08:11:17;;;;;;;10.07;2.78;;;;;;;25.76;100.00;97539.22;6207128;23;20017;-93
2022/10/28 08:13:44;;;;;;;8.20;2.80;;;;;;;26.53;100.00;97545.53;6184302;23;20008;-92
2022/10/28 08:16:10;;;;;;;10.57;2.00;;;;;;;25.11;100.00;97553.00;6182547;23;20012;-92
2022/10/28 08:18:37;;;;;;;11.00;2.40;;;;;;;24.18;100.00;97544.91;6207636;23;20004;-92
2022/10/28 08:21:08;;;;;;;11.25;2.70;;;;;;;27.53;100.00;97563.72;6207206;23;20017;-91
2022/10/28 08:23:34;;;;;;;6.38;1.65;;;;;;;25.93;100.00;97574.25;6206093;23;20005;-94
2022/10/28 08:26:00;;;;;;;9.23;1.70;;;;;;;26.56;100.00;97576.47;6204074;23;20075;-93
2022/10/28 08:28:26;;;;;;;6.68;1.40;;;;;;;26.21;100.00;97578.78;6207597;23;20026;-92
2022/10/28 08:30:51;;;;;;;6.85;1.40;;;;;;;26.19;100.00;97580.75;6206508;23;20497;-91
2022/10/28 08:33:17;;;;;;;5.25;1.20;;;;;;;26.25;100.00;97598.06;6181772;23;20004;-93
2022/10/28 08:35:42;;;;;;;7.45;1.40;;;;;;;27.02;100.00;97587.34;6207635;23;20004;-92
2022/10/28 08:38:08;;;;;;;5.85;1.40;;;;;;;26.18;100.00;97594.22;6182433;23;20153;-93
2022/10/28 08:40:42;;;;;;;9.25;1.20;;;;;;;26.92;100.00;97598.94;6182699;23;20083;-93
2022/10/28 08:43:26;;;;;;;6.25;1.27;;;;;;;26.75;100.00;97610.41;6207699;23;20012;-95
2022/10/28 08:45:55;;;;;;;4.63;0.98;;;;;;;26.80;100.00;97618.81;6207432;23;20023;-95
2022/10/28 08:48:33;;;;;;;6.00;1.15;;;;;;;25.51;100.00;97608.22;6182494;23;20763;-95
2022/10/28 08:51:06;;;;;;;7.05;1.17;;;;;;;26.85;100.00;97634.44;6207077;23;20084;-92
2022/10/28 08:53:41;;;;;;;4.50;1.20;;;;;;;25.75;100.00;97617.66;6207343;23;20079;-92
2022/10/28 08:56:14;;;;;;;5.50;0.90;;;;;;;26.19;100.00;97626.19;6206391;23;20377;-92
2022/10/28 08:58:46;;;;;;;4.68;0.98;;;;;;;27.03;100.00;97629.19;6206416;23;20014;-93
2022/10/28 09:01:21;;;;;;;6.63;0.80;;;;;;;26.44;100.00;97634.59;6207427;23;20491;-92
2022/10/28 09:03:49;;;;;;;6.10;0.88;;;;;;;26.48;100.00;97645.88;6207312;23;20013;-93
2022/10/28 09:06:16;;;;;;;4.03;0.95;;;;;;;26.36;100.00;97643.34;6207522;23;20727;-91
2022/10/28 09:08:46;;;;;;;7.40;1.05;;;;;;;27.01;100.00;97648.03;6206349;23;20004;-93
2022/10/28 09:11:45;;;;;;;5.40;0.63;;;;;;;26.72;100.00;97650.78;6210795;23;20031;-93
2022/10/28 09:14:35;;;;;;;5.22;0.80;;;;;;;26.05;100.00;97661.31;6208953;23;20427;-94
2022/10/28 09:17:19;;;;;;;2.83;0.85;;;;;;;25.74;100.00;97653.38;6202111;23;20031;-93
2022/10/28 09:19:55;;;;;;;2.15;0.50;;;;;;;25.45;100.00;97662.13;6203672;23;20036;-95
2022/10/28 09:22:30;;;;;;;4.75;0.75;;;;;;;26.29;100.00;97671.63;6208609;23;20001;-93
2022/10/28 09:25:23;;;;;;;4.95;0.80;;;;;;;26.35;100.00;97672.88;6206754;23;20070;-95
2022/10/28 09:28:02;;;;;;;5.72;0.73;;;;;;;26.64;100.00;97677.34;6217839;23;20028;-93
2022/10/28 09:30:39;;;;;;;3.33;0.75;;;;;;;26.80;100.00;97685.69;6205688;23;20435;-94
2022/10/28 09:33:14;;;;;;;5.00;0.73;;;;;;;27.14;100.00;97697.72;6182093;23;20008;-96
2022/10/28 09:35:43;;;;;;;5.18;0.70;;;;;;;27.01;100.00;97698.88;6206357;23;20055;-95
2022/10/28 09:38:27;;;;;;;1.75;0.50;;;;;;;26.80;100.00;97715.09;6204866;23;20004;-95
2022/10/28 09:41:00;;;;;;;4.65;0.70;;;;;;;28.06;100.00;97707.69;6207265;23;20001;-91
2022/10/28 09:43:27;;;;;;;3.55;0.52;;;;;;;27.12;100.00;97716.59;6215299;23;20016;-96
2022/10/28 09:45:56;;;;;;;3.25;0.50;;;;;;;27.01;97.96;97706.06;6212756;23;20008;-94
2022/10/28 09:48:27;;;;;;;3.25;0.80;;;;;;;28.76;96.07;97719.63;6203456;23;20008;-92
2022/10/28 09:50:56;;;;;;;4.00;0.65;;;;;;;27.65;97.35;97736.63;6208343;23;20434;-91
2022/10/28 09:53:39;;;;;;;2.05;0.50;;;;;;;27.09;100.00;97736.47;6182874;23;20905;-90
2022/10/28 09:56:08;;;;;;;1.95;0.40;;;;;;;27.92;97.12;97734.97;6207477;23;20066;-92
2022/10/28 09:58:35;;;;;;;2.33;0.38;;;;;;;28.66;94.81;97743.00;6232877;23;20021;-91
2022/10/28 10:01:02;;;;;;;3.55;0.50;;;;;;;29.01;91.77;97741.28;6205755;23;20755;-92
2022/10/28 10:03:31;;;;;;;1.30;0.40;;;;;;;27.47;92.92;97743.75;6206770;23;20008;-93
2022/10/28 10:06:01;;;;;;;3.10;0.40;;;;;;;27.03;93.49;97749.59;6206890;23;20015;-93
2022/10/28 10:08:26;;;;;;;0.50;0.22;;;;;;;28.55;90.45;97766.34;6207562;23;20046;-95
2022/10/28 10:10:52;;;;;;;3.47;0.93;;;;;;;27.99;89.13;97760.22;6207544;23;20698;-93
2022/10/28 10:13:27;;;;;;;2.80;0.40;;;;;;;28.72;89.54;97770.06;6208187;23;20038;-94
2022/10/28 10:15:58;;;;;;;2.33;0.40;;;;;;;27.39;93.37;97779.25;6207353;23;20004;-92
2022/10/28 10:18:28;;;;;;;2.08;0.50;;;;;;;27.92;90.42;97781.34;6208292;23;20020;-94
2022/10/28 10:20:59;;;;;;;1.48;0.43;;;;;;;26.54;93.08;97795.03;6209095;23;20004;-94
2022/10/28 10:23:35;;;;;;;3.22;0.50;;;;;;;25.17;96.09;97802.41;6211085;23;20346;-94
2022/10/28 10:26:08;;;;;;;1.60;0.47;;;;;;;25.72;96.53;97808.38;6233913;23;20054;-93
2022/10/28 10:28:37;;;;;;;2.57;0.47;;;;;;;24.83;97.08;97819.41;6208630;23;20048;-95
2022/10/28 10:31:06;;;;;;;1.88;0.43;;;;;;;25.89;93.27;97833.63;6207768;23;20246;-96
2022/10/28 10:33:39;;;;;;;1.45;0.30;;;;;;;26.22;90.92;97842.38;6212234;23;20019;-93
2022/10/28 10:36:19;;;;;;;2.25;0.40;;;;;;;27.55;88.31;97859.84;6200210;23;20016;-93
2022/10/28 10:38:55;;;;;;;2.13;0.40;;;;;;;25.66;94.11;97866.81;6210447;23;20053;-94
2022/10/28 10:41:39;;;;;;;3.20;0.73;;;;;;;24.67;98.13;97873.13;6238640;23;20040;-96
2022/10/28 10:44:22;;;;;;;1.80;0.40;;;;;;;24.36;97.64;97870.25;6213021;23;20000;-94
2022/10/28 10:46:59;;;;;;;1.20;0.43;;;;;;;26.79;90.75;97865.03;6212953;23;20044;-93
2022/10/28 10:49:28;;;;;;;3.03;0.45;;;;;;;26.13;91.24;97885.94;6213623;23;20008;-93
2022/10/28 10:52:02;;;;;;;2.42;0.40;;;;;;;26.08;93.69;97895.31;6238734;23;20000;-95
2022/10/28 10:54:32;;;;;;;1.42;0.40;;;;;;;25.96;91.89;97894.56;6210142;23;20023;-95
2022/10/28 10:57:21;;;;;;;3.90;0.50;;;;;;;26.38;91.02;97891.81;6208878;23;20013;-96
2022/10/28 10:59:49;;;;;;;2.83;0.68;;;;;;;25.67;89.03;97887.22;6213849;23;20082;-96
2022/10/28 11:02:33;;;;;;;3.08;0.57;;;;;;;26.88;88.23;97902.50;6212316;23;20024;-94
2022/10/28 11:05:05;;;;;;;4.38;0.70;;;;;;;26.53;89.44;97901.13;6212738;23;20020;-96
2022/10/28 11:07:36;;;;;;;4.65;0.70;;;;;;;26.10;87.52;97912.94;6211715;23;20005;-95
2022/10/28 11:10:11;;;;;;;2.35;0.38;;;;;;;27.24;87.26;97921.56;6213791;23;20016;-94
2022/10/28 11:12:54;;;;;;;4.80;0.47;;;;;;;25.69;88.44;97917.28;6211143;23;20062;-96
2022/10/28 11:15:28;;;;;;;3.10;0.75;;;;;;;25.84;90.64;97912.47;6211049;23;20092;-95
2022/10/28 11:18:19;;;;;;;3.17;0.60;;;;;;;24.74;92.43;97933.97;6211682;23;20040;-96
2022/10/28 11:20:51;;;;;;;2.78;0.57;;;;;;;25.51;92.58;97936.56;6210332;23;20749;-96
2022/10/28 11:23:22;;;;;;;4.78;0.68;;;;;;;25.81;91.02;97934.94;6211978;23;20036;-95
2022/10/28 11:26:10;;;;;;;3.65;0.50;;;;;;;26.07;90.64;97918.53;6212003;23;20063;-95
2022/10/28 11:28:57;;;;;;;3.15;0.70;;;;;;;26.54;89.56;97934.94;6210557;23;20054;-95
2022/10/28 11:31:29;;;;;;;3.05;0.57;;;;;;;26.03;90.33;97936.66;6211681;23;20103;-95
2022/10/28 11:34:18;;;;;;;3.22;0.73;;;;;;;26.38;90.57;97945.28;6211968;23;20702;-94
2022/10/28 11:37:08;;;;;;;3.08;0.68;;;;;;;25.10;90.67;97934.63;6212370;23;20038;-94
2022/10/28 11:39:59;;;;;;;3.05;0.68;;;;;;;24.51;89.75;97942.81;6209592;23;20008;-94
2022/10/28 11:42:36;;;;;;;3.08;0.57;;;;;;;25.53;89.56;97942.59;6207706;23;20022;-94